sensor_id;sensor_type;location;lat;lon;timestamp;P1;durP1;ratioP1;P2;durP2;ratioP2
12383;SDS011;6256;63.808;20.336;2022-07-29T00:00:41;0.70;;;0.70;;
12383;SDS011;6256;63.808;20.336;2022-07-29T00:03:11;0.50;;;0.50;;
12383;SDS011;6256;63.808;20.336;2022-07-29T00:05:40;1.27;;;0.63;;
12383;SDS011;6256;63.808;20.336;2022-07-29T00:08:07;0.60;;;0.60;;
12383;SDS011;6256;63.808;20.336;2022-07-29T00:10:34;0.60;;;0.60;;
12383;SDS011;6256;63.808;20.336;2022-07-29T00:13:00;0.50;;;0.50;;
12383;SDS011;6256;63.808;20.336;2022-07-29T00:15:26;0.60;;;0.60;;
12383;SDS011;6256;63.808;20.336;2022-07-29T00:17:52;0.50;;;0.50;;
12383;SDS011;6256;63.808;20.336;2022-07-29T00:20:17;1.73;;;0.70;;
12383;SDS011;6256;63.808;20.336;2022-07-29T00:22:43;0.50;;;0.50;;
12383;SDS011;6256;63.808;20.336;2022-07-29T00:25:09;1.30;;;0.60;;
12383;SDS011;6256;63.808;20.336;2022-07-29T00:27:35;0.67;;;0.67;;
12383;SDS011;6256;63.808;20.336;2022-07-29T00:30:01;0.50;;;0.50;;
12383;SDS011;6256;63.808;20.336;2022-07-29T00:32:27;0.67;;;0.67;;
12383;SDS011;6256;63.808;20.336;2022-07-29T00:34:53;0.80;;;0.80;;
12383;SDS011;6256;63.808;20.336;2022-07-29T00:37:37;0.70;;;0.70;;
12383;SDS011;6256;63.808;20.336;2022-07-29T00:40:03;0.70;;;0.70;;
12383;SDS011;6256;63.808;20.336;2022-07-29T00:42:29;0.70;;;0.70;;
12383;SDS011;6256;63.808;20.336;2022-07-29T00:44:55;2.37;;;0.70;;
12383;SDS011;6256;63.808;20.336;2022-07-29T00:47:21;0.83;;;0.73;;
12383;SDS011;6256;63.808;20.336;2022-07-29T00:49:46;1.73;;;0.77;;
12383;SDS011;6256;63.808;20.336;2022-07-29T00:52:12;0.70;;;0.70;;
12383;SDS011;6256;63.808;20.336;2022-07-29T00:54:38;2.87;;;0.80;;
12383;SDS011;6256;63.808;20.336;2022-07-29T00:57:05;1.83;;;0.80;;
12383;SDS011;6256;63.808;20.336;2022-07-29T00:59:32;0.70;;;0.70;;
12383;SDS011;6256;63.808;20.336;2022-07-29T01:01:58;0.70;;;0.70;;
12383;SDS011;6256;63.808;20.336;2022-07-29T01:04:24;0.77;;;0.77;;
12383;SDS011;6256;63.808;20.336;2022-07-29T01:06:50;0.80;;;0.80;;
12383;SDS011;6256;63.808;20.336;2022-07-29T01:09:16;0.70;;;0.70;;
12383;SDS011;6256;63.808;20.336;2022-07-29T01:11:43;0.80;;;0.80;;
12383;SDS011;6256;63.808;20.336;2022-07-29T01:14:12;0.70;;;0.70;;
12383;SDS011;6256;63.808;20.336;2022-07-29T01:16:45;1.43;;;0.90;;
12383;SDS011;6256;63.808;20.336;2022-07-29T01:22:31;0.53;;;0.53;;
12383;SDS011;6256;63.808;20.336;2022-07-29T01:30:42;0.60;;;0.60;;
12383;SDS011;6256;63.808;20.336;2022-07-29T01:33:11;2.47;;;0.60;;
12383;SDS011;6256;63.808;20.336;2022-07-29T01:36:02;0.67;;;0.67;;
12383;SDS011;6256;63.808;20.336;2022-07-29T01:38:34;0.90;;;0.90;;
12383;SDS011;6256;63.808;20.336;2022-07-29T01:41:05;1.00;;;0.70;;
12383;SDS011;6256;63.808;20.336;2022-07-29T01:43:39;0.70;;;0.70;;
12383;SDS011;6256;63.808;20.336;2022-07-29T01:46:17;0.77;;;0.67;;
12383;SDS011;6256;63.808;20.336;2022-07-29T01:48:50;0.70;;;0.70;;
12383;SDS011;6256;63.808;20.336;2022-07-29T01:51:29;0.80;;;0.80;;
12383;SDS011;6256;63.808;20.336;2022-07-29T01:54:05;0.60;;;0.60;;
12383;SDS011;6256;63.808;20.336;2022-07-29T01:56:38;0.60;;;0.60;;
12383;SDS011;6256;63.808;20.336;2022-07-29T01:59:05;0.70;;;0.70;;
12383;SDS011;6256;63.808;20.336;2022-07-29T02:01:33;0.80;;;0.80;;
12383;SDS011;6256;63.808;20.336;2022-07-29T02:04:03;1.13;;;0.50;;
12383;SDS011;6256;63.808;20.336;2022-07-29T02:06:33;0.60;;;0.60;;
12383;SDS011;6256;63.808;20.336;2022-07-29T02:09:02;0.67;;;0.67;;
12383;SDS011;6256;63.808;20.336;2022-07-29T02:11:29;1.60;;;0.70;;
12383;SDS011;6256;63.808;20.336;2022-07-29T02:13:58;0.60;;;0.60;;
12383;SDS011;6256;63.808;20.336;2022-07-29T02:16:26;0.63;;;0.63;;
12383;SDS011;6256;63.808;20.336;2022-07-29T02:18:55;0.70;;;0.70;;
12383;SDS011;6256;63.808;20.336;2022-07-29T02:21:23;0.50;;;0.50;;
12383;SDS011;6256;63.808;20.336;2022-07-29T02:23:52;1.70;;;1.60;;
12383;SDS011;6256;63.808;20.336;2022-07-29T02:26:20;0.60;;;0.60;;
12383;SDS011;6256;63.808;20.336;2022-07-29T02:28:48;0.97;;;0.90;;
12383;SDS011;6256;63.808;20.336;2022-07-29T02:31:16;0.57;;;0.57;;
12383;SDS011;6256;63.808;20.336;2022-07-29T02:33:45;0.40;;;0.40;;
12383;SDS011;6256;63.808;20.336;2022-07-29T02:36:12;0.50;;;0.40;;
12383;SDS011;6256;63.808;20.336;2022-07-29T02:38:40;1.90;;;0.53;;
12383;SDS011;6256;63.808;20.336;2022-07-29T02:41:18;1.43;;;0.57;;
12383;SDS011;6256;63.808;20.336;2022-07-29T02:43:44;0.60;;;0.60;;
12383;SDS011;6256;63.808;20.336;2022-07-29T02:46:20;0.50;;;0.50;;
12383;SDS011;6256;63.808;20.336;2022-07-29T02:51:32;0.60;;;0.60;;
12383;SDS011;6256;63.808;20.336;2022-07-29T02:54:06;0.50;;;0.50;;
12383;SDS011;6256;63.808;20.336;2022-07-29T02:56:34;0.63;;;0.63;;
12383;SDS011;6256;63.808;20.336;2022-07-29T02:59:03;0.40;;;0.40;;
12383;SDS011;6256;63.808;20.336;2022-07-29T03:01:32;0.50;;;0.50;;
12383;SDS011;6256;63.808;20.336;2022-07-29T03:04:00;0.73;;;0.73;;
12383;SDS011;6256;63.808;20.336;2022-07-29T03:06:29;0.37;;;0.37;;
12383;SDS011;6256;63.808;20.336;2022-07-29T03:08:57;1.50;;;0.40;;
12383;SDS011;6256;63.808;20.336;2022-07-29T03:11:25;0.50;;;0.50;;
12383;SDS011;6256;63.808;20.336;2022-07-29T03:13:51;0.67;;;0.67;;
12383;SDS011;6256;63.808;20.336;2022-07-29T03:16:19;0.40;;;0.40;;
12383;SDS011;6256;63.808;20.336;2022-07-29T03:18:47;0.73;;;0.60;;
12383;SDS011;6256;63.808;20.336;2022-07-29T03:21:13;0.60;;;0.60;;
12383;SDS011;6256;63.808;20.336;2022-07-29T03:23:42;0.70;;;0.50;;
12383;SDS011;6256;63.808;20.336;2022-07-29T03:26:12;0.50;;;0.50;;
12383;SDS011;6256;63.808;20.336;2022-07-29T03:28:38;2.40;;;0.87;;
12383;SDS011;6256;63.808;20.336;2022-07-29T03:31:04;0.60;;;0.60;;
12383;SDS011;6256;63.808;20.336;2022-07-29T03:33:30;0.50;;;0.50;;
12383;SDS011;6256;63.808;20.336;2022-07-29T03:35:56;0.40;;;0.40;;
12383;SDS011;6256;63.808;20.336;2022-07-29T03:38:24;1.10;;;0.50;;
12383;SDS011;6256;63.808;20.336;2022-07-29T03:41:00;0.87;;;0.50;;
12383;SDS011;6256;63.808;20.336;2022-07-29T03:43:34;0.60;;;0.60;;
12383;SDS011;6256;63.808;20.336;2022-07-29T03:46:01;0.40;;;0.40;;
12383;SDS011;6256;63.808;20.336;2022-07-29T03:48:33;0.60;;;0.60;;
12383;SDS011;6256;63.808;20.336;2022-07-29T03:51:01;0.43;;;0.43;;
12383;SDS011;6256;63.808;20.336;2022-07-29T03:53:28;0.60;;;0.60;;
12383;SDS011;6256;63.808;20.336;2022-07-29T03:55:54;0.97;;;0.77;;
12383;SDS011;6256;63.808;20.336;2022-07-29T03:58:24;0.60;;;0.60;;
12383;SDS011;6256;63.808;20.336;2022-07-29T04:00:52;0.50;;;0.50;;
12383;SDS011;6256;63.808;20.336;2022-07-29T04:03:20;0.50;;;0.50;;
12383;SDS011;6256;63.808;20.336;2022-07-29T04:05:57;0.50;;;0.50;;
12383;SDS011;6256;63.808;20.336;2022-07-29T04:08:27;0.60;;;0.60;;
12383;SDS011;6256;63.808;20.336;2022-07-29T04:10:52;0.57;;;0.57;;
12383;SDS011;6256;63.808;20.336;2022-07-29T04:13:19;0.60;;;0.60;;
12383;SDS011;6256;63.808;20.336;2022-07-29T04:15:45;0.50;;;0.50;;
12383;SDS011;6256;63.808;20.336;2022-07-29T04:18:11;0.57;;;0.57;;
12383;SDS011;6256;63.808;20.336;2022-07-29T04:20:36;0.40;;;0.40;;
12383;SDS011;6256;63.808;20.336;2022-07-29T04:23:02;0.30;;;0.30;;
12383;SDS011;6256;63.808;20.336;2022-07-29T04:25:28;0.70;;;0.40;;
12383;SDS011;6256;63.808;20.336;2022-07-29T04:27:53;0.40;;;0.40;;
12383;SDS011;6256;63.808;20.336;2022-07-29T04:30:25;0.40;;;0.40;;
12383;SDS011;6256;63.808;20.336;2022-07-29T04:32:51;0.40;;;0.40;;
12383;SDS011;6256;63.808;20.336;2022-07-29T04:35:17;0.40;;;0.40;;
12383;SDS011;6256;63.808;20.336;2022-07-29T04:37:43;0.70;;;0.50;;
12383;SDS011;6256;63.808;20.336;2022-07-29T04:40:09;0.40;;;0.40;;
12383;SDS011;6256;63.808;20.336;2022-07-29T04:42:36;0.53;;;0.53;;
12383;SDS011;6256;63.808;20.336;2022-07-29T04:45:02;0.40;;;0.40;;
12383;SDS011;6256;63.808;20.336;2022-07-29T04:47:28;0.40;;;0.40;;
12383;SDS011;6256;63.808;20.336;2022-07-29T04:49:54;0.50;;;0.50;;
12383;SDS011;6256;63.808;20.336;2022-07-29T04:52:21;0.50;;;0.50;;
12383;SDS011;6256;63.808;20.336;2022-07-29T04:54:47;0.37;;;0.37;;
12383;SDS011;6256;63.808;20.336;2022-07-29T04:57:13;0.27;;;0.27;;
12383;SDS011;6256;63.808;20.336;2022-07-29T04:59:39;1.17;;;0.50;;
12383;SDS011;6256;63.808;20.336;2022-07-29T05:02:05;0.40;;;0.40;;
12383;SDS011;6256;63.808;20.336;2022-07-29T05:04:30;0.67;;;0.60;;
12383;SDS011;6256;63.808;20.336;2022-07-29T05:06:56;0.40;;;0.40;;
12383;SDS011;6256;63.808;20.336;2022-07-29T05:09:22;0.40;;;0.40;;
12383;SDS011;6256;63.808;20.336;2022-07-29T05:11:47;0.30;;;0.30;;
12383;SDS011;6256;63.808;20.336;2022-07-29T05:14:13;0.40;;;0.40;;
12383;SDS011;6256;63.808;20.336;2022-07-29T05:16:39;0.40;;;0.40;;
12383;SDS011;6256;63.808;20.336;2022-07-29T05:19:05;0.43;;;0.33;;
12383;SDS011;6256;63.808;20.336;2022-07-29T05:21:31;0.30;;;0.30;;
12383;SDS011;6256;63.808;20.336;2022-07-29T05:23:57;0.20;;;0.20;;
12383;SDS011;6256;63.808;20.336;2022-07-29T05:26:23;2.23;;;0.50;;
12383;SDS011;6256;63.808;20.336;2022-07-29T05:28:48;0.43;;;0.43;;
12383;SDS011;6256;63.808;20.336;2022-07-29T05:31:14;0.50;;;0.50;;
12383;SDS011;6256;63.808;20.336;2022-07-29T05:33:40;0.50;;;0.50;;
12383;SDS011;6256;63.808;20.336;2022-07-29T05:36:06;0.50;;;0.50;;
12383;SDS011;6256;63.808;20.336;2022-07-29T05:38:33;0.40;;;0.40;;
12383;SDS011;6256;63.808;20.336;2022-07-29T05:40:59;0.40;;;0.40;;
12383;SDS011;6256;63.808;20.336;2022-07-29T05:43:26;0.60;;;0.37;;
12383;SDS011;6256;63.808;20.336;2022-07-29T05:45:52;0.50;;;0.50;;
12383;SDS011;6256;63.808;20.336;2022-07-29T05:48:18;0.77;;;0.50;;
12383;SDS011;6256;63.808;20.336;2022-07-29T05:50:44;0.50;;;0.50;;
12383;SDS011;6256;63.808;20.336;2022-07-29T05:53:09;0.47;;;0.47;;
12383;SDS011;6256;63.808;20.336;2022-07-29T05:55:35;0.50;;;0.50;;
12383;SDS011;6256;63.808;20.336;2022-07-29T05:58:01;0.47;;;0.47;;
12383;SDS011;6256;63.808;20.336;2022-07-29T06:00:27;0.85;;;0.77;;
12383;SDS011;6256;63.808;20.336;2022-07-29T06:02:53;0.40;;;0.40;;
12383;SDS011;6256;63.808;20.336;2022-07-29T06:05:19;0.50;;;0.50;;
12383;SDS011;6256;63.808;20.336;2022-07-29T06:07:45;0.50;;;0.40;;
12383;SDS011;6256;63.808;20.336;2022-07-29T06:10:11;1.10;;;0.50;;
12383;SDS011;6256;63.808;20.336;2022-07-29T06:12:36;1.60;;;0.40;;
12383;SDS011;6256;63.808;20.336;2022-07-29T06:15:02;1.17;;;0.50;;
12383;SDS011;6256;63.808;20.336;2022-07-29T06:17:28;0.38;;;0.38;;
12383;SDS011;6256;63.808;20.336;2022-07-29T06:19:54;1.15;;;0.40;;
12383;SDS011;6256;63.808;20.336;2022-07-29T06:22:19;0.30;;;0.30;;
12383;SDS011;6256;63.808;20.336;2022-07-29T06:24:45;0.40;;;0.40;;
12383;SDS011;6256;63.808;20.336;2022-07-29T06:27:11;0.50;;;0.40;;
12383;SDS011;6256;63.808;20.336;2022-07-29T06:29:37;0.30;;;0.30;;
12383;SDS011;6256;63.808;20.336;2022-07-29T06:32:03;0.38;;;0.38;;
12383;SDS011;6256;63.808;20.336;2022-07-29T06:34:29;0.52;;;0.43;;
12383;SDS011;6256;63.808;20.336;2022-07-29T06:36:55;0.90;;;0.28;;
12383;SDS011;6256;63.808;20.336;2022-07-29T06:39:20;0.45;;;0.38;;
12383;SDS011;6256;63.808;20.336;2022-07-29T06:41:47;0.30;;;0.30;;
12383;SDS011;6256;63.808;20.336;2022-07-29T06:44:17;0.25;;;0.25;;
12383;SDS011;6256;63.808;20.336;2022-07-29T06:46:43;0.55;;;0.30;;
12383;SDS011;6256;63.808;20.336;2022-07-29T06:49:09;0.30;;;0.30;;
12383;SDS011;6256;63.808;20.336;2022-07-29T06:51:35;0.32;;;0.32;;
12383;SDS011;6256;63.808;20.336;2022-07-29T06:54:01;0.52;;;0.47;;
12383;SDS011;6256;63.808;20.336;2022-07-29T06:56:28;0.28;;;0.28;;
12383;SDS011;6256;63.808;20.336;2022-07-29T06:58:57;0.20;;;0.20;;
12383;SDS011;6256;63.808;20.336;2022-07-29T07:01:22;0.30;;;0.30;;
12383;SDS011;6256;63.808;20.336;2022-07-29T07:03:48;0.30;;;0.30;;
12383;SDS011;6256;63.808;20.336;2022-07-29T07:06:14;0.60;;;0.38;;
12383;SDS011;6256;63.808;20.336;2022-07-29T07:08:40;0.30;;;0.30;;
12383;SDS011;6256;63.808;20.336;2022-07-29T07:11:06;0.25;;;0.25;;
12383;SDS011;6256;63.808;20.336;2022-07-29T07:13:32;0.38;;;0.30;;
12383;SDS011;6256;63.808;20.336;2022-07-29T07:15:59;0.30;;;0.30;;
12383;SDS011;6256;63.808;20.336;2022-07-29T07:18:29;0.30;;;0.30;;
12383;SDS011;6256;63.808;20.336;2022-07-29T07:20:55;0.43;;;0.40;;
12383;SDS011;6256;63.808;20.336;2022-07-29T07:23:22;0.30;;;0.30;;
12383;SDS011;6256;63.808;20.336;2022-07-29T07:25:47;0.30;;;0.30;;
12383;SDS011;6256;63.808;20.336;2022-07-29T07:28:13;0.35;;;0.35;;
12383;SDS011;6256;63.808;20.336;2022-07-29T07:30:39;0.30;;;0.30;;
12383;SDS011;6256;63.808;20.336;2022-07-29T07:33:05;1.33;;;0.45;;
12383;SDS011;6256;63.808;20.336;2022-07-29T07:35:30;0.40;;;0.40;;
12383;SDS011;6256;63.808;20.336;2022-07-29T07:37:56;0.85;;;0.40;;
12383;SDS011;6256;63.808;20.336;2022-07-29T07:40:22;0.25;;;0.25;;
12383;SDS011;6256;63.808;20.336;2022-07-29T07:42:48;0.30;;;0.30;;
12383;SDS011;6256;63.808;20.336;2022-07-29T07:45:14;0.40;;;0.40;;
12383;SDS011;6256;63.808;20.336;2022-07-29T07:47:40;0.55;;;0.50;;
12383;SDS011;6256;63.808;20.336;2022-07-29T07:50:07;0.30;;;0.30;;
12383;SDS011;6256;63.808;20.336;2022-07-29T07:52:37;0.75;;;0.35;;
12383;SDS011;6256;63.808;20.336;2022-07-29T07:55:15;0.30;;;0.30;;
12383;SDS011;6256;63.808;20.336;2022-07-29T07:57:41;0.40;;;0.40;;
12383;SDS011;6256;63.808;20.336;2022-07-29T08:00:07;0.30;;;0.30;;
12383;SDS011;6256;63.808;20.336;2022-07-29T08:02:33;0.32;;;0.30;;
12383;SDS011;6256;63.808;20.336;2022-07-29T08:04:59;0.50;;;0.50;;
12383;SDS011;6256;63.808;20.336;2022-07-29T08:07:24;0.40;;;0.40;;
12383;SDS011;6256;63.808;20.336;2022-07-29T08:09:51;0.30;;;0.30;;
12383;SDS011;6256;63.808;20.336;2022-07-29T08:12:16;0.22;;;0.22;;
12383;SDS011;6256;63.808;20.336;2022-07-29T08:14:42;0.65;;;0.30;;
12383;SDS011;6256;63.808;20.336;2022-07-29T08:17:08;0.45;;;0.30;;
12383;SDS011;6256;63.808;20.336;2022-07-29T08:19:33;0.40;;;0.40;;
12383;SDS011;6256;63.808;20.336;2022-07-29T08:21:59;0.77;;;0.40;;
12383;SDS011;6256;63.808;20.336;2022-07-29T08:24:25;0.40;;;0.40;;
12383;SDS011;6256;63.808;20.336;2022-07-29T08:27:11;0.30;;;0.30;;
12383;SDS011;6256;63.808;20.336;2022-07-29T08:29:37;0.30;;;0.30;;
12383;SDS011;6256;63.808;20.336;2022-07-29T08:32:03;0.30;;;0.30;;
12383;SDS011;6256;63.808;20.336;2022-07-29T08:34:29;0.30;;;0.30;;
12383;SDS011;6256;63.808;20.336;2022-07-29T08:36:55;0.40;;;0.40;;
12383;SDS011;6256;63.808;20.336;2022-07-29T08:39:22;0.40;;;0.40;;
12383;SDS011;6256;63.808;20.336;2022-07-29T08:41:48;0.22;;;0.22;;
12383;SDS011;6256;63.808;20.336;2022-07-29T08:44:15;0.45;;;0.30;;
12383;SDS011;6256;63.808;20.336;2022-07-29T08:46:46;0.20;;;0.20;;
12383;SDS011;6256;63.808;20.336;2022-07-29T08:49:12;0.20;;;0.20;;
12383;SDS011;6256;63.808;20.336;2022-07-29T08:51:39;0.40;;;0.40;;
12383;SDS011;6256;63.808;20.336;2022-07-29T08:54:06;0.22;;;0.20;;
12383;SDS011;6256;63.808;20.336;2022-07-29T08:56:33;0.40;;;0.40;;
12383;SDS011;6256;63.808;20.336;2022-07-29T08:59:00;0.40;;;0.40;;
12383;SDS011;6256;63.808;20.336;2022-07-29T09:01:29;0.38;;;0.22;;
12383;SDS011;6256;63.808;20.336;2022-07-29T09:03:58;0.20;;;0.20;;
12383;SDS011;6256;63.808;20.336;2022-07-29T09:06:27;0.40;;;0.40;;
12383;SDS011;6256;63.808;20.336;2022-07-29T09:09:01;0.30;;;0.30;;
12383;SDS011;6256;63.808;20.336;2022-07-29T09:11:28;0.68;;;0.40;;
12383;SDS011;6256;63.808;20.336;2022-07-29T09:13:54;0.38;;;0.25;;
12383;SDS011;6256;63.808;20.336;2022-07-29T09:16:20;0.45;;;0.30;;
12383;SDS011;6256;63.808;20.336;2022-07-29T09:18:46;0.75;;;0.40;;
12383;SDS011;6256;63.808;20.336;2022-07-29T09:21:15;0.40;;;0.40;;
12383;SDS011;6256;63.808;20.336;2022-07-29T09:26:30;0.35;;;0.35;;
12383;SDS011;6256;63.808;20.336;2022-07-29T09:28:57;0.63;;;0.32;;
12383;SDS011;6256;63.808;20.336;2022-07-29T09:31:33;0.40;;;0.30;;
12383;SDS011;6256;63.808;20.336;2022-07-29T09:34:00;0.30;;;0.30;;
12383;SDS011;6256;63.808;20.336;2022-07-29T09:36:26;0.30;;;0.30;;
12383;SDS011;6256;63.808;20.336;2022-07-29T09:38:59;0.30;;;0.30;;
12383;SDS011;6256;63.808;20.336;2022-07-29T09:41:26;0.28;;;0.28;;
12383;SDS011;6256;63.808;20.336;2022-07-29T09:43:56;0.38;;;0.38;;
12383;SDS011;6256;63.808;20.336;2022-07-29T09:46:23;0.40;;;0.40;;
12383;SDS011;6256;63.808;20.336;2022-07-29T09:51:37;0.40;;;0.40;;
12383;SDS011;6256;63.808;20.336;2022-07-29T09:54:20;0.35;;;0.32;;
12383;SDS011;6256;63.808;20.336;2022-07-29T09:56:51;0.63;;;0.50;;
12383;SDS011;6256;63.808;20.336;2022-07-29T09:59:17;0.50;;;0.50;;
12383;SDS011;6256;63.808;20.336;2022-07-29T10:01:47;0.30;;;0.30;;
12383;SDS011;6256;63.808;20.336;2022-07-29T10:04:15;0.50;;;0.43;;
12383;SDS011;6256;63.808;20.336;2022-07-29T10:07:00;0.63;;;0.50;;
12383;SDS011;6256;63.808;20.336;2022-07-29T10:09:27;1.15;;;0.43;;
12383;SDS011;6256;63.808;20.336;2022-07-29T10:12:06;1.30;;;0.40;;
12383;SDS011;6256;63.808;20.336;2022-07-29T10:14:33;0.50;;;0.50;;
12383;SDS011;6256;63.808;20.336;2022-07-29T10:16:59;1.13;;;0.68;;
12383;SDS011;6256;63.808;20.336;2022-07-29T10:19:27;1.25;;;0.60;;
12383;SDS011;6256;63.808;20.336;2022-07-29T10:21:55;0.50;;;0.50;;
12383;SDS011;6256;63.808;20.336;2022-07-29T10:24:28;0.85;;;0.70;;
12383;SDS011;6256;63.808;20.336;2022-07-29T10:26:55;0.63;;;0.63;;
12383;SDS011;6256;63.808;20.336;2022-07-29T10:29:23;0.50;;;0.40;;
12383;SDS011;6256;63.808;20.336;2022-07-29T10:31:53;0.55;;;0.55;;
12383;SDS011;6256;63.808;20.336;2022-07-29T10:34:29;0.50;;;0.50;;
12383;SDS011;6256;63.808;20.336;2022-07-29T10:43:09;0.60;;;0.60;;
12383;SDS011;6256;63.808;20.336;2022-07-29T10:45:46;1.00;;;0.90;;
12383;SDS011;6256;63.808;20.336;2022-07-29T10:48:13;3.08;;;1.08;;
12383;SDS011;6256;63.808;20.336;2022-07-29T10:50:55;2.05;;;0.70;;
12383;SDS011;6256;63.808;20.336;2022-07-29T10:53:23;0.57;;;0.57;;
12383;SDS011;6256;63.808;20.336;2022-07-29T10:55:50;0.75;;;0.60;;
12383;SDS011;6256;63.808;20.336;2022-07-29T11:00:44;0.68;;;0.68;;
12383;SDS011;6256;63.808;20.336;2022-07-29T11:06:10;0.80;;;0.80;;
12383;SDS011;6256;63.808;20.336;2022-07-29T11:08:36;0.77;;;0.77;;
12383;SDS011;6256;63.808;20.336;2022-07-29T11:13:51;1.00;;;0.80;;
12383;SDS011;6256;63.808;20.336;2022-07-29T11:16:20;1.42;;;0.80;;
12383;SDS011;6256;63.808;20.336;2022-07-29T11:21:39;0.80;;;0.80;;
12383;SDS011;6256;63.808;20.336;2022-07-29T11:24:33;1.23;;;0.82;;
12383;SDS011;6256;63.808;20.336;2022-07-29T11:29:38;1.50;;;1.30;;
12383;SDS011;6256;63.808;20.336;2022-07-29T11:32:36;1.20;;;0.98;;
12383;SDS011;6256;63.808;20.336;2022-07-29T11:43:47;1.05;;;0.90;;
12383;SDS011;6256;63.808;20.336;2022-07-29T11:49:10;1.05;;;0.93;;
12383;SDS011;6256;63.808;20.336;2022-07-29T11:51:37;0.93;;;0.90;;
12383;SDS011;6256;63.808;20.336;2022-07-29T11:54:03;1.30;;;0.93;;
12383;SDS011;6256;63.808;20.336;2022-07-29T11:56:33;1.50;;;0.95;;
12383;SDS011;6256;63.808;20.336;2022-07-29T11:59:04;2.25;;;1.10;;
12383;SDS011;6256;63.808;20.336;2022-07-29T12:01:31;4.53;;;1.20;;
12383;SDS011;6256;63.808;20.336;2022-07-29T12:04:06;1.50;;;0.85;;
12383;SDS011;6256;63.808;20.336;2022-07-29T12:06:36;1.15;;;0.90;;
12383;SDS011;6256;63.808;20.336;2022-07-29T12:09:08;1.70;;;0.88;;
12383;SDS011;6256;63.808;20.336;2022-07-29T12:11:34;1.88;;;0.90;;
12383;SDS011;6256;63.808;20.336;2022-07-29T12:14:00;1.67;;;1.10;;
12383;SDS011;6256;63.808;20.336;2022-07-29T12:16:36;1.10;;;1.00;;
12383;SDS011;6256;63.808;20.336;2022-07-29T12:19:03;0.95;;;0.77;;
12383;SDS011;6256;63.808;20.336;2022-07-29T12:21:45;1.70;;;1.00;;
12383;SDS011;6256;63.808;20.336;2022-07-29T12:24:12;1.08;;;0.90;;
12383;SDS011;6256;63.808;20.336;2022-07-29T12:26:51;1.42;;;1.08;;
12383;SDS011;6256;63.808;20.336;2022-07-29T12:29:24;1.65;;;1.00;;
12383;SDS011;6256;63.808;20.336;2022-07-29T12:31:54;1.20;;;0.90;;
12383;SDS011;6256;63.808;20.336;2022-07-29T12:34:22;1.00;;;0.90;;
12383;SDS011;6256;63.808;20.336;2022-07-29T12:36:51;1.25;;;1.02;;
12383;SDS011;6256;63.808;20.336;2022-07-29T12:39:17;1.02;;;0.90;;
12383;SDS011;6256;63.808;20.336;2022-07-29T12:41:43;1.10;;;1.00;;
12383;SDS011;6256;63.808;20.336;2022-07-29T12:44:09;1.40;;;1.30;;
12383;SDS011;6256;63.808;20.336;2022-07-29T12:46:35;1.40;;;1.00;;
12383;SDS011;6256;63.808;20.336;2022-07-29T12:49:01;1.10;;;1.00;;
12383;SDS011;6256;63.808;20.336;2022-07-29T12:51:31;1.40;;;1.10;;
12383;SDS011;6256;63.808;20.336;2022-07-29T12:54:08;1.33;;;1.23;;
12383;SDS011;6256;63.808;20.336;2022-07-29T12:56:41;1.45;;;1.27;;
12383;SDS011;6256;63.808;20.336;2022-07-29T12:59:15;1.10;;;1.00;;
12383;SDS011;6256;63.808;20.336;2022-07-29T13:01:46;0.85;;;0.82;;
12383;SDS011;6256;63.808;20.336;2022-07-29T13:04:27;1.40;;;1.10;;
12383;SDS011;6256;63.808;20.336;2022-07-29T13:07:03;1.35;;;1.10;;
12383;SDS011;6256;63.808;20.336;2022-07-29T13:09:37;1.05;;;0.85;;
12383;SDS011;6256;63.808;20.336;2022-07-29T13:12:05;1.65;;;1.13;;
12383;SDS011;6256;63.808;20.336;2022-07-29T13:14:33;0.90;;;0.88;;
12383;SDS011;6256;63.808;20.336;2022-07-29T13:17:09;1.52;;;0.93;;
12383;SDS011;6256;63.808;20.336;2022-07-29T13:22:13;0.90;;;0.85;;
12383;SDS011;6256;63.808;20.336;2022-07-29T13:24:51;1.17;;;0.80;;
12383;SDS011;6256;63.808;20.336;2022-07-29T13:27:19;1.38;;;0.95;;
12383;SDS011;6256;63.808;20.336;2022-07-29T13:29:46;2.05;;;0.98;;
12383;SDS011;6256;63.808;20.336;2022-07-29T13:32:12;1.20;;;0.82;;
12383;SDS011;6256;63.808;20.336;2022-07-29T13:34:38;0.93;;;0.90;;
12383;SDS011;6256;63.808;20.336;2022-07-29T13:37:04;0.95;;;0.85;;
12383;SDS011;6256;63.808;20.336;2022-07-29T13:39:30;1.40;;;0.88;;
12383;SDS011;6256;63.808;20.336;2022-07-29T13:41:56;0.80;;;0.63;;
12383;SDS011;6256;63.808;20.336;2022-07-29T13:44:22;1.23;;;1.13;;
12383;SDS011;6256;63.808;20.336;2022-07-29T13:46:47;1.05;;;0.93;;
12383;SDS011;6256;63.808;20.336;2022-07-29T13:49:13;2.00;;;1.20;;
12383;SDS011;6256;63.808;20.336;2022-07-29T13:51:39;0.73;;;0.73;;
12383;SDS011;6256;63.808;20.336;2022-07-29T13:54:04;1.25;;;0.93;;
12383;SDS011;6256;63.808;20.336;2022-07-29T13:56:30;1.27;;;1.00;;
12383;SDS011;6256;63.808;20.336;2022-07-29T13:58:56;1.35;;;1.05;;
12383;SDS011;6256;63.808;20.336;2022-07-29T14:01:22;2.35;;;1.27;;
12383;SDS011;6256;63.808;20.336;2022-07-29T14:03:48;1.27;;;1.00;;
12383;SDS011;6256;63.808;20.336;2022-07-29T14:06:14;1.20;;;1.00;;
12383;SDS011;6256;63.808;20.336;2022-07-29T14:08:39;2.28;;;1.17;;
12383;SDS011;6256;63.808;20.336;2022-07-29T14:11:06;1.30;;;1.10;;
12383;SDS011;6256;63.808;20.336;2022-07-29T14:13:31;1.83;;;1.30;;
12383;SDS011;6256;63.808;20.336;2022-07-29T14:15:57;1.15;;;0.98;;
12383;SDS011;6256;63.808;20.336;2022-07-29T14:18:23;1.83;;;1.10;;
12383;SDS011;6256;63.808;20.336;2022-07-29T14:20:49;1.13;;;0.90;;
12383;SDS011;6256;63.808;20.336;2022-07-29T14:23:15;1.92;;;1.05;;
12383;SDS011;6256;63.808;20.336;2022-07-29T14:25:41;2.25;;;1.30;;
12383;SDS011;6256;63.808;20.336;2022-07-29T14:28:07;1.20;;;1.10;;
12383;SDS011;6256;63.808;20.336;2022-07-29T14:30:33;1.00;;;0.90;;
12383;SDS011;6256;63.808;20.336;2022-07-29T14:32:59;0.88;;;0.82;;
12383;SDS011;6256;63.808;20.336;2022-07-29T14:35:25;1.65;;;1.05;;
12383;SDS011;6256;63.808;20.336;2022-07-29T14:37:50;1.23;;;1.00;;
12383;SDS011;6256;63.808;20.336;2022-07-29T14:40:16;1.27;;;1.10;;
12383;SDS011;6256;63.808;20.336;2022-07-29T14:42:42;1.65;;;1.00;;
12383;SDS011;6256;63.808;20.336;2022-07-29T14:45:08;1.45;;;1.08;;
12383;SDS011;6256;63.808;20.336;2022-07-29T14:47:34;1.88;;;1.10;;
12383;SDS011;6256;63.808;20.336;2022-07-29T14:50:00;1.17;;;0.90;;
12383;SDS011;6256;63.808;20.336;2022-07-29T14:52:26;1.13;;;0.93;;
12383;SDS011;6256;63.808;20.336;2022-07-29T14:54:52;1.58;;;1.05;;
12383;SDS011;6256;63.808;20.336;2022-07-29T14:57:17;1.17;;;1.00;;
12383;SDS011;6256;63.808;20.336;2022-07-29T14:59:43;1.10;;;0.90;;
12383;SDS011;6256;63.808;20.336;2022-07-29T15:02:09;1.75;;;1.13;;
12383;SDS011;6256;63.808;20.336;2022-07-29T15:04:35;1.95;;;1.00;;
12383;SDS011;6256;63.808;20.336;2022-07-29T15:07:00;1.25;;;1.15;;
12383;SDS011;6256;63.808;20.336;2022-07-29T15:09:26;1.55;;;1.23;;
12383;SDS011;6256;63.808;20.336;2022-07-29T15:11:52;0.85;;;0.85;;
12383;SDS011;6256;63.808;20.336;2022-07-29T15:14:17;1.70;;;1.00;;
12383;SDS011;6256;63.808;20.336;2022-07-29T15:16:43;2.63;;;1.20;;
12383;SDS011;6256;63.808;20.336;2022-07-29T15:19:10;1.60;;;1.13;;
12383;SDS011;6256;63.808;20.336;2022-07-29T15:21:36;1.10;;;1.00;;
12383;SDS011;6256;63.808;20.336;2022-07-29T15:24:02;0.90;;;0.90;;
12383;SDS011;6256;63.808;20.336;2022-07-29T15:26:28;0.90;;;0.82;;
12383;SDS011;6256;63.808;20.336;2022-07-29T15:28:53;1.02;;;0.93;;
12383;SDS011;6256;63.808;20.336;2022-07-29T15:31:21;1.55;;;1.10;;
12383;SDS011;6256;63.808;20.336;2022-07-29T15:33:47;1.38;;;1.00;;
12383;SDS011;6256;63.808;20.336;2022-07-29T15:36:13;1.70;;;1.20;;
12383;SDS011;6256;63.808;20.336;2022-07-29T15:38:38;1.20;;;1.10;;
12383;SDS011;6256;63.808;20.336;2022-07-29T15:41:05;1.33;;;0.98;;
12383;SDS011;6256;63.808;20.336;2022-07-29T15:43:31;2.80;;;0.90;;